Messwerte High Level

Temperatur

Temperatur
°C
1573992000 5.00 5.00 -9
1573995600 6.00 6.00 -9
1573999200 7.00 7.00 -10
1574002800 8.00 8.00 -10
1574006400 9.00 9.00 -10
1574010000 10.00 10.00 -10
1574013600 11.00 11.00 -10
1574017200 12.00 12.00 -11
1574020800 13.00 13.00 -11
1574024400 14.00 14.00 -10
1574028000 15.00 15.00 -10
1574031600 16.00 16.00 -10
1574035200 17.00 17.00 -10
1574038800 18.00 18.00 -10
1574042400 19.00 19.00 -9
1574046000 20.00 20.00 -9
1574049600 21.00 21.00 -9
1574053200 22.00 22.00
1574056800 23.00 23.00 -9
1574060400 0.00 0.00 -9
1574064000 1.00 1.00 -9
1574067600 2.00 2.00 -9
1574071200 3.00 3.00 -10
1574074800 4.00 4.00

Wir danken unserem Partner:

Aktuellste Messwerte

Wettercharakter
Wetter: wechselnd bewölkt
Temperatur
-9 °C
Feuchtigkeit
80 %
Wind
15 km/hWindrichtung: West
Luftdruck
1003 hPa
Messzeit: 18. November 2019, 4.00Datenquelle: METAR

Weitere Messstationen in der Nähe

Messstation Temperatur Entfernung
Manning Agdm -4 °C 184 km
Hay River -12 °C 257 km
Hay River -12 °C 257 km
Peace River 3 °C 267 km
Fairview Agdm 4 °C 292 km
Cleardale Agdm 6 °C 299 km
Fort Providence -13 °C 301 km

Wind

Windrichtung Böen Mittelwind
° km/h km/h
1573992000 5.00 4.00 - 5.00 350° 20
1573995600 6.00 5.00 - 6.00 360° 30 20
1573999200 7.00 6.00 - 7.00 350° 35 25
1574002800 8.00 7.00 - 8.00 350° 25
1574006400 9.00 8.00 - 9.00 350° 30 20
1574010000 10.00 9.00 - 10.00 340° 35 20
1574013600 11.00 10.00 - 11.00 340° 30 20
1574017200 12.00 11.00 - 12.00 350° 30 20
1574020800 13.00 12.00 - 13.00 350° 20
1574024400 14.00 13.00 - 14.00 360° 30 20
1574028000 15.00 14.00 - 15.00 340° 15
1574031600 16.00 15.00 - 16.00 340° 10
1574035200 17.00 16.00 - 17.00 320° 15
1574038800 18.00 17.00 - 18.00 340° 10
1574042400 19.00 18.00 - 19.00 350° 15
1574046000 20.00 19.00 - 20.00 320° 5
1574049600 21.00 20.00 - 21.00 320° 5
1574053200 22.00 21.00 - 22.00
1574056800 23.00 22.00 - 23.00 350° 10
1574060400 0.00 23.00 - 0.00 330° 10
1574064000 1.00 0.00 - 1.00 350° 10
1574067600 2.00 1.00 - 2.00 330° 10
1574071200 3.00 2.00 - 3.00 340° 5
1574074800 4.00 3.00 - 4.00

Ihre Wetterstation

Fehlt Ihre Wetterstation auf unserem Portal?

Schreiben Sie an network@meteonews.ch

Klima

Wann ist es am wärmsten? Wann regnet es am wenigsten? Unsere Klimadaten geben Auskunft.